sensor_id;sensor_type;location;lat;lon;timestamp;P1;durP1;ratioP1;P2;durP2;ratioP2
11709;SDS011;5911;51.036;6.972;2022-11-15T00:02:09;10.73;;;8.13;;
11709;SDS011;5911;51.036;6.972;2022-11-15T00:04:55;12.57;;;7.87;;
11709;SDS011;5911;51.036;6.972;2022-11-15T00:07:42;9.77;;;7.43;;
11709;SDS011;5911;51.036;6.972;2022-11-15T00:10:41;10.47;;;8.10;;
11709;SDS011;5911;51.036;6.972;2022-11-15T00:13:28;9.53;;;7.30;;
11709;SDS011;5911;51.036;6.972;2022-11-15T00:16:15;10.17;;;7.57;;
11709;SDS011;5911;51.036;6.972;2022-11-15T00:19:03;9.87;;;8.07;;
11709;SDS011;5911;51.036;6.972;2022-11-15T00:21:49;14.00;;;8.03;;
11709;SDS011;5911;51.036;6.972;2022-11-15T00:24:35;11.57;;;8.53;;
11709;SDS011;5911;51.036;6.972;2022-11-15T00:27:23;14.03;;;8.80;;
11709;SDS011;5911;51.036;6.972;2022-11-15T00:30:09;12.50;;;8.40;;
11709;SDS011;5911;51.036;6.972;2022-11-15T00:33:00;16.43;;;8.83;;
11709;SDS011;5911;51.036;6.972;2022-11-15T00:35:47;13.53;;;8.80;;
11709;SDS011;5911;51.036;6.972;2022-11-15T00:38:33;11.10;;;8.33;;
11709;SDS011;5911;51.036;6.972;2022-11-15T00:41:21;13.97;;;9.13;;
11709;SDS011;5911;51.036;6.972;2022-11-15T00:44:08;13.60;;;9.10;;
11709;SDS011;5911;51.036;6.972;2022-11-15T00:46:54;13.67;;;9.23;;
11709;SDS011;5911;51.036;6.972;2022-11-15T00:49:40;13.00;;;9.70;;
11709;SDS011;5911;51.036;6.972;2022-11-15T00:52:27;10.83;;;9.73;;
11709;SDS011;5911;51.036;6.972;2022-11-15T00:55:13;10.83;;;8.80;;
11709;SDS011;5911;51.036;6.972;2022-11-15T00:58:01;11.73;;;9.20;;
11709;SDS011;5911;51.036;6.972;2022-11-15T01:00:48;14.20;;;9.97;;
11709;SDS011;5911;51.036;6.972;2022-11-15T01:03:35;13.17;;;10.43;;
11709;SDS011;5911;51.036;6.972;2022-11-15T01:06:21;12.37;;;9.27;;
11709;SDS011;5911;51.036;6.972;2022-11-15T01:09:08;11.03;;;8.87;;
11709;SDS011;5911;51.036;6.972;2022-11-15T01:11:54;12.03;;;9.93;;
11709;SDS011;5911;51.036;6.972;2022-11-15T01:14:40;12.30;;;8.03;;
11709;SDS011;5911;51.036;6.972;2022-11-15T01:17:28;13.97;;;8.23;;
11709;SDS011;5911;51.036;6.972;2022-11-15T01:20:16;12.53;;;8.53;;
11709;SDS011;5911;51.036;6.972;2022-11-15T01:23:03;12.57;;;9.10;;
11709;SDS011;5911;51.036;6.972;2022-11-15T01:25:50;13.40;;;8.93;;
11709;SDS011;5911;51.036;6.972;2022-11-15T01:28:36;11.97;;;8.70;;
11709;SDS011;5911;51.036;6.972;2022-11-15T01:31:23;11.57;;;9.23;;
11709;SDS011;5911;51.036;6.972;2022-11-15T01:34:11;10.93;;;8.63;;
11709;SDS011;5911;51.036;6.972;2022-11-15T01:36:57;12.13;;;8.63;;
11709;SDS011;5911;51.036;6.972;2022-11-15T01:39:44;12.07;;;8.50;;
11709;SDS011;5911;51.036;6.972;2022-11-15T01:42:31;10.53;;;8.13;;
11709;SDS011;5911;51.036;6.972;2022-11-15T01:45:17;11.93;;;8.93;;
11709;SDS011;5911;51.036;6.972;2022-11-15T01:48:04;10.43;;;9.33;;
11709;SDS011;5911;51.036;6.972;2022-11-15T01:50:57;13.07;;;9.17;;
11709;SDS011;5911;51.036;6.972;2022-11-15T01:53:45;11.00;;;9.60;;
11709;SDS011;5911;51.036;6.972;2022-11-15T01:56:36;13.23;;;8.47;;
11709;SDS011;5911;51.036;6.972;2022-11-15T01:59:27;11.10;;;8.90;;
11709;SDS011;5911;51.036;6.972;2022-11-15T02:02:14;12.07;;;9.60;;
11709;SDS011;5911;51.036;6.972;2022-11-15T02:05:01;11.43;;;8.70;;
11709;SDS011;5911;51.036;6.972;2022-11-15T02:07:50;11.33;;;8.63;;
11709;SDS011;5911;51.036;6.972;2022-11-15T02:10:37;10.53;;;8.80;;
11709;SDS011;5911;51.036;6.972;2022-11-15T02:13:23;11.07;;;7.60;;
11709;SDS011;5911;51.036;6.972;2022-11-15T02:16:12;12.27;;;9.00;;
11709;SDS011;5911;51.036;6.972;2022-11-15T02:19:10;16.10;;;9.47;;
11709;SDS011;5911;51.036;6.972;2022-11-15T02:22:10;13.80;;;9.47;;
11709;SDS011;5911;51.036;6.972;2022-11-15T02:25:12;12.63;;;9.10;;
11709;SDS011;5911;51.036;6.972;2022-11-15T02:28:26;15.37;;;9.60;;
11709;SDS011;5911;51.036;6.972;2022-11-15T02:31:28;14.67;;;9.07;;
11709;SDS011;5911;51.036;6.972;2022-11-15T02:34:22;13.73;;;8.60;;
11709;SDS011;5911;51.036;6.972;2022-11-15T02:37:20;13.07;;;8.67;;
11709;SDS011;5911;51.036;6.972;2022-11-15T02:40:13;12.20;;;8.67;;
11709;SDS011;5911;51.036;6.972;2022-11-15T02:43:07;13.27;;;8.33;;
11709;SDS011;5911;51.036;6.972;2022-11-15T02:46:14;12.87;;;9.00;;
11709;SDS011;5911;51.036;6.972;2022-11-15T02:49:29;12.47;;;9.03;;
11709;SDS011;5911;51.036;6.972;2022-11-15T02:52:19;11.30;;;8.03;;
11709;SDS011;5911;51.036;6.972;2022-11-15T02:58:20;10.67;;;8.47;;
11709;SDS011;5911;51.036;6.972;2022-11-15T03:01:28;12.57;;;8.23;;
11709;SDS011;5911;51.036;6.972;2022-11-15T03:04:27;9.53;;;7.80;;
11709;SDS011;5911;51.036;6.972;2022-11-15T03:07:23;12.40;;;8.33;;
11709;SDS011;5911;51.036;6.972;2022-11-15T03:10:16;10.60;;;8.47;;
11709;SDS011;5911;51.036;6.972;2022-11-15T03:13:08;12.40;;;8.03;;
11709;SDS011;5911;51.036;6.972;2022-11-15T03:16:04;10.07;;;7.80;;
11709;SDS011;5911;51.036;6.972;2022-11-15T03:18:54;10.60;;;8.17;;
11709;SDS011;5911;51.036;6.972;2022-11-15T03:21:46;8.57;;;7.63;;
11709;SDS011;5911;51.036;6.972;2022-11-15T03:24:33;9.53;;;7.57;;
11709;SDS011;5911;51.036;6.972;2022-11-15T03:27:23;12.07;;;8.07;;
11709;SDS011;5911;51.036;6.972;2022-11-15T03:30:13;10.10;;;7.20;;
11709;SDS011;5911;51.036;6.972;2022-11-15T03:33:00;9.30;;;7.93;;
11709;SDS011;5911;51.036;6.972;2022-11-15T03:35:50;9.97;;;7.90;;
11709;SDS011;5911;51.036;6.972;2022-11-15T03:38:40;8.00;;;6.47;;
11709;SDS011;5911;51.036;6.972;2022-11-15T03:41:30;9.27;;;7.33;;
11709;SDS011;5911;51.036;6.972;2022-11-15T03:44:30;9.30;;;7.90;;
11709;SDS011;5911;51.036;6.972;2022-11-15T03:47:23;8.10;;;7.10;;
11709;SDS011;5911;51.036;6.972;2022-11-15T03:50:14;9.43;;;7.07;;
11709;SDS011;5911;51.036;6.972;2022-11-15T03:53:02;9.00;;;8.00;;
11709;SDS011;5911;51.036;6.972;2022-11-15T03:55:51;8.13;;;6.90;;
11709;SDS011;5911;51.036;6.972;2022-11-15T03:58:37;8.33;;;6.87;;
11709;SDS011;5911;51.036;6.972;2022-11-15T04:01:23;7.60;;;6.73;;
11709;SDS011;5911;51.036;6.972;2022-11-15T04:04:10;7.63;;;6.83;;
11709;SDS011;5911;51.036;6.972;2022-11-15T04:06:57;7.27;;;6.30;;
11709;SDS011;5911;51.036;6.972;2022-11-15T04:09:43;11.03;;;7.43;;
11709;SDS011;5911;51.036;6.972;2022-11-15T04:12:48;10.33;;;7.67;;
11709;SDS011;5911;51.036;6.972;2022-11-15T04:15:35;11.03;;;8.20;;
11709;SDS011;5911;51.036;6.972;2022-11-15T04:18:22;11.73;;;8.23;;
11709;SDS011;5911;51.036;6.972;2022-11-15T04:21:09;10.97;;;8.37;;
11709;SDS011;5911;51.036;6.972;2022-11-15T04:24:12;8.70;;;7.23;;
11709;SDS011;5911;51.036;6.972;2022-11-15T04:26:59;11.33;;;8.03;;
11709;SDS011;5911;51.036;6.972;2022-11-15T04:29:47;10.47;;;7.87;;
11709;SDS011;5911;51.036;6.972;2022-11-15T04:32:33;10.50;;;7.20;;
11709;SDS011;5911;51.036;6.972;2022-11-15T04:35:19;9.90;;;7.63;;
11709;SDS011;5911;51.036;6.972;2022-11-15T04:38:06;10.33;;;7.60;;
11709;SDS011;5911;51.036;6.972;2022-11-15T04:40:53;10.13;;;7.50;;
11709;SDS011;5911;51.036;6.972;2022-11-15T04:43:39;13.67;;;8.30;;
11709;SDS011;5911;51.036;6.972;2022-11-15T04:46:26;9.87;;;8.20;;
11709;SDS011;5911;51.036;6.972;2022-11-15T04:49:13;10.90;;;8.53;;
11709;SDS011;5911;51.036;6.972;2022-11-15T04:51:59;15.00;;;8.60;;
11709;SDS011;5911;51.036;6.972;2022-11-15T04:54:45;12.80;;;8.93;;
11709;SDS011;5911;51.036;6.972;2022-11-15T04:57:31;10.13;;;8.73;;
11709;SDS011;5911;51.036;6.972;2022-11-15T05:00:18;13.10;;;8.83;;
11709;SDS011;5911;51.036;6.972;2022-11-15T05:03:06;10.70;;;8.73;;
11709;SDS011;5911;51.036;6.972;2022-11-15T05:06:12;12.03;;;8.67;;
11709;SDS011;5911;51.036;6.972;2022-11-15T05:08:58;13.80;;;9.70;;
11709;SDS011;5911;51.036;6.972;2022-11-15T05:11:44;11.07;;;8.63;;
11709;SDS011;5911;51.036;6.972;2022-11-15T05:14:31;9.70;;;8.70;;
11709;SDS011;5911;51.036;6.972;2022-11-15T05:17:17;11.13;;;9.40;;
11709;SDS011;5911;51.036;6.972;2022-11-15T05:20:05;10.17;;;9.00;;
11709;SDS011;5911;51.036;6.972;2022-11-15T05:22:52;10.20;;;9.20;;
11709;SDS011;5911;51.036;6.972;2022-11-15T05:25:39;8.60;;;7.77;;
11709;SDS011;5911;51.036;6.972;2022-11-15T05:28:26;8.87;;;7.73;;
11709;SDS011;5911;51.036;6.972;2022-11-15T05:31:12;8.77;;;7.87;;
11709;SDS011;5911;51.036;6.972;2022-11-15T05:34:04;9.53;;;7.40;;
11709;SDS011;5911;51.036;6.972;2022-11-15T05:36:52;9.13;;;8.27;;
11709;SDS011;5911;51.036;6.972;2022-11-15T05:39:39;11.47;;;8.80;;
11709;SDS011;5911;51.036;6.972;2022-11-15T05:42:25;10.77;;;8.53;;
11709;SDS011;5911;51.036;6.972;2022-11-15T05:45:13;11.80;;;9.67;;
11709;SDS011;5911;51.036;6.972;2022-11-15T05:48:00;9.70;;;8.70;;
11709;SDS011;5911;51.036;6.972;2022-11-15T05:50:50;9.53;;;8.63;;
11709;SDS011;5911;51.036;6.972;2022-11-15T05:53:38;12.20;;;9.47;;
11709;SDS011;5911;51.036;6.972;2022-11-15T05:56:26;10.33;;;8.97;;
11709;SDS011;5911;51.036;6.972;2022-11-15T05:59:14;10.00;;;8.83;;
11709;SDS011;5911;51.036;6.972;2022-11-15T06:02:01;9.10;;;8.20;;
11709;SDS011;5911;51.036;6.972;2022-11-15T06:04:47;10.07;;;8.53;;
11709;SDS011;5911;51.036;6.972;2022-11-15T06:07:33;9.73;;;8.47;;
11709;SDS011;5911;51.036;6.972;2022-11-15T06:10:21;9.70;;;8.67;;
11709;SDS011;5911;51.036;6.972;2022-11-15T06:13:08;9.17;;;7.83;;
11709;SDS011;5911;51.036;6.972;2022-11-15T06:15:55;7.93;;;6.37;;
11709;SDS011;5911;51.036;6.972;2022-11-15T06:18:41;7.40;;;6.57;;
11709;SDS011;5911;51.036;6.972;2022-11-15T06:21:27;9.83;;;7.10;;
11709;SDS011;5911;51.036;6.972;2022-11-15T06:24:13;10.67;;;6.93;;
11709;SDS011;5911;51.036;6.972;2022-11-15T06:27:01;10.40;;;7.93;;
11709;SDS011;5911;51.036;6.972;2022-11-15T06:29:48;11.33;;;7.53;;
11709;SDS011;5911;51.036;6.972;2022-11-15T06:32:34;10.07;;;8.20;;
11709;SDS011;5911;51.036;6.972;2022-11-15T06:35:20;9.60;;;7.57;;
11709;SDS011;5911;51.036;6.972;2022-11-15T06:38:07;7.63;;;6.90;;
11709;SDS011;5911;51.036;6.972;2022-11-15T06:40:55;6.67;;;5.67;;
11709;SDS011;5911;51.036;6.972;2022-11-15T06:43:48;7.83;;;6.17;;
11709;SDS011;5911;51.036;6.972;2022-11-15T06:46:34;7.40;;;6.17;;
11709;SDS011;5911;51.036;6.972;2022-11-15T06:49:20;7.13;;;5.93;;
11709;SDS011;5911;51.036;6.972;2022-11-15T06:52:07;6.40;;;5.60;;
11709;SDS011;5911;51.036;6.972;2022-11-15T06:54:53;6.23;;;5.63;;
11709;SDS011;5911;51.036;6.972;2022-11-15T06:57:45;6.27;;;5.73;;
11709;SDS011;5911;51.036;6.972;2022-11-15T07:00:33;7.40;;;6.60;;
11709;SDS011;5911;51.036;6.972;2022-11-15T07:03:20;7.77;;;6.97;;
11709;SDS011;5911;51.036;6.972;2022-11-15T07:06:06;8.93;;;7.63;;
11709;SDS011;5911;51.036;6.972;2022-11-15T07:08:53;10.10;;;8.07;;
11709;SDS011;5911;51.036;6.972;2022-11-15T07:11:39;10.83;;;6.90;;
11709;SDS011;5911;51.036;6.972;2022-11-15T07:14:26;7.27;;;5.70;;
11709;SDS011;5911;51.036;6.972;2022-11-15T07:17:13;6.93;;;6.00;;
11709;SDS011;5911;51.036;6.972;2022-11-15T07:19:59;7.67;;;6.57;;
11709;SDS011;5911;51.036;6.972;2022-11-15T07:22:46;8.93;;;6.60;;
11709;SDS011;5911;51.036;6.972;2022-11-15T07:25:32;7.50;;;6.23;;
11709;SDS011;5911;51.036;6.972;2022-11-15T07:28:19;7.67;;;6.60;;
11709;SDS011;5911;51.036;6.972;2022-11-15T07:31:06;10.60;;;6.87;;
11709;SDS011;5911;51.036;6.972;2022-11-15T07:33:55;10.57;;;7.87;;
11709;SDS011;5911;51.036;6.972;2022-11-15T07:36:42;8.23;;;6.93;;
11709;SDS011;5911;51.036;6.972;2022-11-15T07:39:28;8.00;;;7.23;;
11709;SDS011;5911;51.036;6.972;2022-11-15T07:42:14;10.10;;;9.17;;
11709;SDS011;5911;51.036;6.972;2022-11-15T07:45:18;11.37;;;9.30;;
11709;SDS011;5911;51.036;6.972;2022-11-15T07:48:04;11.73;;;10.53;;
11709;SDS011;5911;51.036;6.972;2022-11-15T07:50:52;12.13;;;10.00;;
11709;SDS011;5911;51.036;6.972;2022-11-15T07:53:38;11.37;;;10.03;;
11709;SDS011;5911;51.036;6.972;2022-11-15T07:56:25;8.70;;;7.80;;
11709;SDS011;5911;51.036;6.972;2022-11-15T07:59:11;8.57;;;7.73;;
11709;SDS011;5911;51.036;6.972;2022-11-15T08:01:57;8.67;;;7.67;;
11709;SDS011;5911;51.036;6.972;2022-11-15T08:04:43;9.27;;;8.20;;
11709;SDS011;5911;51.036;6.972;2022-11-15T08:07:31;13.97;;;10.27;;
11709;SDS011;5911;51.036;6.972;2022-11-15T08:10:17;9.43;;;8.00;;
11709;SDS011;5911;51.036;6.972;2022-11-15T08:13:05;10.07;;;8.17;;
11709;SDS011;5911;51.036;6.972;2022-11-15T08:15:56;10.70;;;7.60;;
11709;SDS011;5911;51.036;6.972;2022-11-15T08:18:44;9.93;;;6.50;;
11709;SDS011;5911;51.036;6.972;2022-11-15T08:21:30;7.50;;;6.80;;
11709;SDS011;5911;51.036;6.972;2022-11-15T08:24:18;5.67;;;5.17;;
11709;SDS011;5911;51.036;6.972;2022-11-15T08:27:05;8.20;;;6.00;;
11709;SDS011;5911;51.036;6.972;2022-11-15T08:29:59;7.70;;;5.10;;
11709;SDS011;5911;51.036;6.972;2022-11-15T08:32:46;5.00;;;4.50;;
11709;SDS011;5911;51.036;6.972;2022-11-15T08:35:32;6.60;;;4.87;;
11709;SDS011;5911;51.036;6.972;2022-11-15T08:38:18;7.73;;;5.17;;
11709;SDS011;5911;51.036;6.972;2022-11-15T08:41:06;8.17;;;5.00;;
11709;SDS011;5911;51.036;6.972;2022-11-15T08:43:52;4.70;;;4.30;;
11709;SDS011;5911;51.036;6.972;2022-11-15T08:46:39;5.77;;;4.60;;
11709;SDS011;5911;51.036;6.972;2022-11-15T08:49:25;4.70;;;4.07;;
11709;SDS011;5911;51.036;6.972;2022-11-15T08:52:11;5.10;;;4.43;;
11709;SDS011;5911;51.036;6.972;2022-11-15T08:54:57;4.93;;;4.23;;
11709;SDS011;5911;51.036;6.972;2022-11-15T08:57:45;3.63;;;3.10;;
11709;SDS011;5911;51.036;6.972;2022-11-15T09:00:32;5.00;;;3.30;;
11709;SDS011;5911;51.036;6.972;2022-11-15T09:03:18;3.57;;;3.00;;
11709;SDS011;5911;51.036;6.972;2022-11-15T09:06:05;5.60;;;3.50;;
11709;SDS011;5911;51.036;6.972;2022-11-15T09:08:51;6.70;;;4.57;;
11709;SDS011;5911;51.036;6.972;2022-11-15T09:11:37;3.20;;;2.73;;
11709;SDS011;5911;51.036;6.972;2022-11-15T09:14:25;3.13;;;2.43;;
11709;SDS011;5911;51.036;6.972;2022-11-15T09:17:11;3.50;;;2.87;;
11709;SDS011;5911;51.036;6.972;2022-11-15T09:19:57;3.80;;;2.73;;
11709;SDS011;5911;51.036;6.972;2022-11-15T09:22:44;3.77;;;2.50;;
11709;SDS011;5911;51.036;6.972;2022-11-15T09:25:30;7.03;;;2.80;;
11709;SDS011;5911;51.036;6.972;2022-11-15T09:28:17;2.03;;;1.83;;
11709;SDS011;5911;51.036;6.972;2022-11-15T09:31:23;2.37;;;1.77;;
11709;SDS011;5911;51.036;6.972;2022-11-15T09:34:11;4.53;;;2.00;;
11709;SDS011;5911;51.036;6.972;2022-11-15T09:36:57;3.37;;;2.10;;
11709;SDS011;5911;51.036;6.972;2022-11-15T09:39:43;4.63;;;1.73;;
11709;SDS011;5911;51.036;6.972;2022-11-15T09:42:34;1.90;;;1.67;;
11709;SDS011;5911;51.036;6.972;2022-11-15T09:45:30;4.70;;;1.73;;
11709;SDS011;5911;51.036;6.972;2022-11-15T09:48:49;1.93;;;1.77;;
11709;SDS011;5911;51.036;6.972;2022-11-15T09:51:53;2.27;;;1.83;;
11709;SDS011;5911;51.036;6.972;2022-11-15T09:54:25;2.00;;;1.80;;
11709;SDS011;5911;51.036;6.972;2022-11-15T09:57:20;2.43;;;2.00;;
11709;SDS011;5911;51.036;6.972;2022-11-15T09:59:55;3.05;;;1.73;;
11709;SDS011;5911;51.036;6.972;2022-11-15T10:02:54;2.10;;;1.50;;
11709;SDS011;5911;51.036;6.972;2022-11-15T10:05:29;4.15;;;1.60;;
11709;SDS011;5911;51.036;6.972;2022-11-15T10:08:00;2.27;;;1.50;;
11709;SDS011;5911;51.036;6.972;2022-11-15T10:10:34;1.98;;;1.30;;
11709;SDS011;5911;51.036;6.972;2022-11-15T10:13:06;4.07;;;1.57;;
11709;SDS011;5911;51.036;6.972;2022-11-15T10:15:42;2.87;;;1.43;;
11709;SDS011;5911;51.036;6.972;2022-11-15T10:18:15;2.83;;;1.30;;
11709;SDS011;5911;51.036;6.972;2022-11-15T10:20:48;3.80;;;1.60;;
11709;SDS011;5911;51.036;6.972;2022-11-15T10:23:18;2.73;;;2.00;;
11709;SDS011;5911;51.036;6.972;2022-11-15T10:25:48;2.60;;;1.50;;
11709;SDS011;5911;51.036;6.972;2022-11-15T10:28:21;4.23;;;1.80;;
11709;SDS011;5911;51.036;6.972;2022-11-15T10:30:53;1.40;;;1.20;;
11709;SDS011;5911;51.036;6.972;2022-11-15T10:33:31;1.70;;;1.23;;
11709;SDS011;5911;51.036;6.972;2022-11-15T10:36:16;2.03;;;1.30;;
11709;SDS011;5911;51.036;6.972;2022-11-15T10:38:51;5.73;;;1.87;;
11709;SDS011;5911;51.036;6.972;2022-11-15T10:41:21;1.43;;;1.03;;
11709;SDS011;5911;51.036;6.972;2022-11-15T10:44:01;4.33;;;1.17;;
11709;SDS011;5911;51.036;6.972;2022-11-15T10:46:39;1.30;;;1.03;;
11709;SDS011;5911;51.036;6.972;2022-11-15T10:49:15;2.55;;;1.30;;
11709;SDS011;5911;51.036;6.972;2022-11-15T10:51:46;3.47;;;1.53;;
11709;SDS011;5911;51.036;6.972;2022-11-15T10:54:19;2.93;;;1.20;;
11709;SDS011;5911;51.036;6.972;2022-11-15T10:56:52;2.87;;;1.60;;
11709;SDS011;5911;51.036;6.972;2022-11-15T10:59:23;5.20;;;1.47;;
11709;SDS011;5911;51.036;6.972;2022-11-15T11:01:53;2.43;;;1.17;;
11709;SDS011;5911;51.036;6.972;2022-11-15T11:04:21;3.97;;;1.60;;
11709;SDS011;5911;51.036;6.972;2022-11-15T11:06:52;2.20;;;1.20;;
11709;SDS011;5911;51.036;6.972;2022-11-15T11:09:22;3.43;;;1.50;;
11709;SDS011;5911;51.036;6.972;2022-11-15T11:11:55;1.83;;;1.13;;
11709;SDS011;5911;51.036;6.972;2022-11-15T11:14:24;1.77;;;0.80;;
11709;SDS011;5911;51.036;6.972;2022-11-15T11:16:55;1.63;;;1.00;;
11709;SDS011;5911;51.036;6.972;2022-11-15T11:22:30;4.83;;;1.17;;
11709;SDS011;5911;51.036;6.972;2022-11-15T11:25:10;2.40;;;1.10;;
11709;SDS011;5911;51.036;6.972;2022-11-15T11:27:51;4.83;;;1.17;;
11709;SDS011;5911;51.036;6.972;2022-11-15T11:30:30;3.00;;;0.97;;
11709;SDS011;5911;51.036;6.972;2022-11-15T11:33:10;1.80;;;1.20;;
11709;SDS011;5911;51.036;6.972;2022-11-15T11:35:57;3.87;;;1.37;;
11709;SDS011;5911;51.036;6.972;2022-11-15T11:38:47;6.23;;;1.43;;
11709;SDS011;5911;51.036;6.972;2022-11-15T11:41:34;2.30;;;1.27;;
11709;SDS011;5911;51.036;6.972;2022-11-15T11:44:24;4.70;;;1.30;;
11709;SDS011;5911;51.036;6.972;2022-11-15T11:46:59;3.20;;;1.30;;
11709;SDS011;5911;51.036;6.972;2022-11-15T11:49:31;2.00;;;1.00;;
11709;SDS011;5911;51.036;6.972;2022-11-15T11:52:09;1.30;;;0.80;;
11709;SDS011;5911;51.036;6.972;2022-11-15T11:54:45;4.60;;;1.25;;
11709;SDS011;5911;51.036;6.972;2022-11-15T11:57:21;4.10;;;1.20;;
11709;SDS011;5911;51.036;6.972;2022-11-15T11:59:58;2.17;;;1.20;;
11709;SDS011;5911;51.036;6.972;2022-11-15T12:02:38;2.13;;;0.90;;
11709;SDS011;5911;51.036;6.972;2022-11-15T12:05:09;2.07;;;0.90;;
11709;SDS011;5911;51.036;6.972;2022-11-15T12:07:43;2.37;;;1.10;;
11709;SDS011;5911;51.036;6.972;2022-11-15T12:10:17;3.03;;;1.60;;
11709;SDS011;5911;51.036;6.972;2022-11-15T12:12:51;2.77;;;0.97;;
11709;SDS011;5911;51.036;6.972;2022-11-15T12:15:24;0.90;;;0.80;;
11709;SDS011;5911;51.036;6.972;2022-11-15T12:17:55;2.33;;;1.13;;
11709;SDS011;5911;51.036;6.972;2022-11-15T12:20:32;3.83;;;1.23;;
11709;SDS011;5911;51.036;6.972;2022-11-15T12:23:05;6.07;;;1.10;;
11709;SDS011;5911;51.036;6.972;2022-11-15T12:25:40;4.18;;;1.00;;
11709;SDS011;5911;51.036;6.972;2022-11-15T12:28:14;3.08;;;1.15;;
11709;SDS011;5911;51.036;6.972;2022-11-15T12:30:49;2.65;;;1.20;;
11709;SDS011;5911;51.036;6.972;2022-11-15T12:33:31;3.23;;;1.20;;
11709;SDS011;5911;51.036;6.972;2022-11-15T12:36:03;1.50;;;0.90;;
11709;SDS011;5911;51.036;6.972;2022-11-15T12:38:53;2.67;;;0.90;;
11709;SDS011;5911;51.036;6.972;2022-11-15T12:41:24;3.70;;;1.48;;
11709;SDS011;5911;51.036;6.972;2022-11-15T12:43:53;2.03;;;1.50;;
11709;SDS011;5911;51.036;6.972;2022-11-15T12:46:22;2.85;;;1.35;;
11709;SDS011;5911;51.036;6.972;2022-11-15T12:49:08;2.27;;;1.10;;
11709;SDS011;5911;51.036;6.972;2022-11-15T12:57:54;2.63;;;1.83;;
11709;SDS011;5911;51.036;6.972;2022-11-15T13:03:17;4.27;;;1.73;;
11709;SDS011;5911;51.036;6.972;2022-11-15T13:05:57;2.10;;;1.20;;
11709;SDS011;5911;51.036;6.972;2022-11-15T13:08:41;4.03;;;1.77;;
11709;SDS011;5911;51.036;6.972;2022-11-15T13:17:28;4.43;;;1.73;;
11709;SDS011;5911;51.036;6.972;2022-11-15T13:23:00;3.10;;;1.90;;
11709;SDS011;5911;51.036;6.972;2022-11-15T13:25:39;3.85;;;2.00;;
11709;SDS011;5911;51.036;6.972;2022-11-15T13:28:31;4.95;;;1.92;;
11709;SDS011;5911;51.036;6.972;2022-11-15T13:31:16;6.57;;;1.90;;
11709;SDS011;5911;51.036;6.972;2022-11-15T13:34:00;4.18;;;1.95;;
11709;SDS011;5911;51.036;6.972;2022-11-15T13:36:50;3.67;;;1.90;;
11709;SDS011;5911;51.036;6.972;2022-11-15T13:39:29;4.82;;;2.03;;
11709;SDS011;5911;51.036;6.972;2022-11-15T13:41:58;3.83;;;2.17;;
11709;SDS011;5911;51.036;6.972;2022-11-15T13:44:27;4.28;;;2.05;;
11709;SDS011;5911;51.036;6.972;2022-11-15T13:47:02;4.07;;;2.07;;
11709;SDS011;5911;51.036;6.972;2022-11-15T13:49:31;4.67;;;2.30;;
11709;SDS011;5911;51.036;6.972;2022-11-15T13:52:00;5.22;;;2.25;;
11709;SDS011;5911;51.036;6.972;2022-11-15T13:54:33;4.78;;;2.40;;
11709;SDS011;5911;51.036;6.972;2022-11-15T13:57:04;4.82;;;2.60;;
11709;SDS011;5911;51.036;6.972;2022-11-15T13:59:45;5.53;;;3.17;;
11709;SDS011;5911;51.036;6.972;2022-11-15T14:02:18;6.57;;;3.28;;
11709;SDS011;5911;51.036;6.972;2022-11-15T14:04:49;6.70;;;3.83;;
11709;SDS011;5911;51.036;6.972;2022-11-15T14:07:20;6.97;;;3.03;;
11709;SDS011;5911;51.036;6.972;2022-11-15T14:09:50;4.90;;;2.55;;
11709;SDS011;5911;51.036;6.972;2022-11-15T14:12:22;5.18;;;2.90;;
11709;SDS011;5911;51.036;6.972;2022-11-15T14:14:55;5.28;;;3.00;;
11709;SDS011;5911;51.036;6.972;2022-11-15T14:17:36;4.43;;;2.83;;
11709;SDS011;5911;51.036;6.972;2022-11-15T14:20:19;8.60;;;3.20;;
11709;SDS011;5911;51.036;6.972;2022-11-15T14:22:54;3.85;;;2.85;;
11709;SDS011;5911;51.036;6.972;2022-11-15T14:25:24;6.47;;;2.92;;
11709;SDS011;5911;51.036;6.972;2022-11-15T14:30:57;2.90;;;2.20;;
11709;SDS011;5911;51.036;6.972;2022-11-15T14:33:28;4.80;;;2.70;;
11709;SDS011;5911;51.036;6.972;2022-11-15T14:35:59;4.27;;;2.73;;
11709;SDS011;5911;51.036;6.972;2022-11-15T14:38:31;4.53;;;2.43;;
11709;SDS011;5911;51.036;6.972;2022-11-15T14:41:01;5.68;;;2.60;;
11709;SDS011;5911;51.036;6.972;2022-11-15T14:43:29;3.07;;;2.50;;
11709;SDS011;5911;51.036;6.972;2022-11-15T14:45:57;4.80;;;2.17;;
11709;SDS011;5911;51.036;6.972;2022-11-15T14:48:25;4.37;;;2.03;;
11709;SDS011;5911;51.036;6.972;2022-11-15T14:50:54;2.50;;;2.22;;
11709;SDS011;5911;51.036;6.972;2022-11-15T14:53:22;2.40;;;2.20;;
11709;SDS011;5911;51.036;6.972;2022-11-15T14:55:50;3.40;;;2.00;;
11709;SDS011;5911;51.036;6.972;2022-11-15T14:58:17;2.88;;;2.40;;
11709;SDS011;5911;51.036;6.972;2022-11-15T15:00:45;4.43;;;2.88;;
11709;SDS011;5911;51.036;6.972;2022-11-15T15:03:13;4.45;;;2.72;;
11709;SDS011;5911;51.036;6.972;2022-11-15T15:05:42;5.10;;;2.80;;
11709;SDS011;5911;51.036;6.972;2022-11-15T15:08:13;5.15;;;2.60;;
11709;SDS011;5911;51.036;6.972;2022-11-15T15:10:44;5.30;;;2.70;;
11709;SDS011;5911;51.036;6.972;2022-11-15T15:13:15;6.03;;;2.53;;
11709;SDS011;5911;51.036;6.972;2022-11-15T15:15:45;4.90;;;2.22;;
11709;SDS011;5911;51.036;6.972;2022-11-15T15:18:26;4.73;;;2.47;;
11709;SDS011;5911;51.036;6.972;2022-11-15T15:20:55;2.78;;;2.20;;
11709;SDS011;5911;51.036;6.972;2022-11-15T15:23:28;4.05;;;2.88;;
11709;SDS011;5911;51.036;6.972;2022-11-15T15:26:02;2.37;;;2.17;;
11709;SDS011;5911;51.036;6.972;2022-11-15T15:28:30;3.33;;;2.47;;
11709;SDS011;5911;51.036;6.972;2022-11-15T15:31:00;3.10;;;1.92;;
11709;SDS011;5911;51.036;6.972;2022-11-15T15:33:30;3.53;;;2.13;;
11709;SDS011;5911;51.036;6.972;2022-11-15T15:35:58;4.40;;;2.37;;
11709;SDS011;5911;51.036;6.972;2022-11-15T15:38:27;3.72;;;2.20;;
11709;SDS011;5911;51.036;6.972;2022-11-15T15:40:56;3.23;;;2.30;;
11709;SDS011;5911;51.036;6.972;2022-11-15T15:43:26;2.78;;;2.10;;
11709;SDS011;5911;51.036;6.972;2022-11-15T15:45:54;3.22;;;2.15;;
11709;SDS011;5911;51.036;6.972;2022-11-15T15:48:22;2.90;;;2.10;;
11709;SDS011;5911;51.036;6.972;2022-11-15T15:50:51;3.58;;;2.53;;
11709;SDS011;5911;51.036;6.972;2022-11-15T15:53:19;3.53;;;2.50;;
11709;SDS011;5911;51.036;6.972;2022-11-15T15:55:48;6.37;;;2.80;;
11709;SDS011;5911;51.036;6.972;2022-11-15T15:58:16;3.13;;;2.30;;
11709;SDS011;5911;51.036;6.972;2022-11-15T16:00:44;2.83;;;2.13;;
11709;SDS011;5911;51.036;6.972;2022-11-15T16:03:12;3.57;;;1.90;;
11709;SDS011;5911;51.036;6.972;2022-11-15T16:05:40;3.80;;;2.10;;
11709;SDS011;5911;51.036;6.972;2022-11-15T16:08:10;3.00;;;1.70;;
11709;SDS011;5911;51.036;6.972;2022-11-15T16:10:45;3.20;;;2.07;;
11709;SDS011;5911;51.036;6.972;2022-11-15T16:13:14;4.10;;;2.20;;
11709;SDS011;5911;51.036;6.972;2022-11-15T16:15:43;3.00;;;2.10;;
11709;SDS011;5911;51.036;6.972;2022-11-15T16:18:14;3.22;;;2.00;;
11709;SDS011;5911;51.036;6.972;2022-11-15T16:20:44;2.60;;;2.00;;
11709;SDS011;5911;51.036;6.972;2022-11-15T16:23:16;3.23;;;1.83;;
11709;SDS011;5911;51.036;6.972;2022-11-15T16:25:47;2.77;;;2.17;;
11709;SDS011;5911;51.036;6.972;2022-11-15T16:28:18;2.03;;;1.87;;
11709;SDS011;5911;51.036;6.972;2022-11-15T16:30:58;2.47;;;1.97;;
11709;SDS011;5911;51.036;6.972;2022-11-15T16:33:27;2.90;;;2.40;;
11709;SDS011;5911;51.036;6.972;2022-11-15T16:35:56;3.37;;;2.23;;
11709;SDS011;5911;51.036;6.972;2022-11-15T16:38:24;2.67;;;2.10;;
11709;SDS011;5911;51.036;6.972;2022-11-15T16:40:51;3.33;;;2.30;;
11709;SDS011;5911;51.036;6.972;2022-11-15T16:43:21;2.43;;;2.10;;
11709;SDS011;5911;51.036;6.972;2022-11-15T16:45:49;2.73;;;2.37;;
11709;SDS011;5911;51.036;6.972;2022-11-15T16:48:20;3.13;;;2.70;;
11709;SDS011;5911;51.036;6.972;2022-11-15T16:50:53;5.00;;;2.73;;
11709;SDS011;5911;51.036;6.972;2022-11-15T16:53:22;3.97;;;2.83;;
11709;SDS011;5911;51.036;6.972;2022-11-15T16:55:50;4.37;;;3.03;;
11709;SDS011;5911;51.036;6.972;2022-11-15T16:58:18;4.13;;;2.60;;